Time;durP1;ratioP1;P1;durP2;ratioP2;P2;SDS_P1;SDS_P2;PMS_P1;PMS_P2;Temp;Humidity;BMP_temperature;BMP_pressure;BME280_temperature;BME280_humidity;BME280_pressure;Samples;Min_cycle;Max_cycle;Signal;HPM_P1;HPM_P2
2023/01/06 00:00:14;;;;;;;93.78;25.10;;;10.30;99.90;;;;;;5073488;28;20053;-73
2023/01/06 00:02:39;;;;;;;93.03;23.33;;;10.20;99.90;;;;;;5072364;28;20498;-74
2023/01/06 00:05:05;;;;;;;85.00;23.00;;;10.20;99.90;;;;;;5072979;28;20041;-74
2023/01/06 00:07:31;;;;;;;82.28;22.67;;;10.30;99.90;;;;;;5089682;28;20056;-74
2023/01/06 00:09:57;;;;;;;92.82;21.50;;;10.20;99.90;;;;;;5073294;28;20136;-74
2023/01/06 00:12:25;;;;;;;80.72;20.77;;;10.20;99.90;;;;;;5073305;28;20041;-74
2023/01/06 00:14:51;;;;;;;82.65;21.90;;;10.30;99.90;;;;;;5073831;28;20052;-74
2023/01/06 00:17:17;;;;;;;88.73;24.30;;;10.30;99.90;;;;;;5072076;28;20110;-75
2023/01/06 00:19:43;;;;;;;77.60;20.92;;;10.30;99.90;;;;;;5072725;28;20084;-74
2023/01/06 00:22:09;;;;;;;86.50;19.25;;;10.30;99.90;;;;;;5055623;28;20045;-72
2023/01/06 00:24:34;;;;;;;93.55;22.23;;;10.30;99.90;;;;;;5055300;28;20048;-73
2023/01/06 00:27:00;;;;;;;69.25;19.55;;;10.40;99.90;;;;;;5073238;28;20075;-74
2023/01/06 00:29:26;;;;;;;78.82;19.88;;;10.30;99.90;;;;;;5038866;28;20139;-75
2023/01/06 00:31:52;;;;;;;57.90;15.75;;;10.30;99.90;;;;;;5071964;28;20045;-73
2023/01/06 00:34:18;;;;;;;67.35;19.83;;;10.40;99.90;;;;;;5055484;28;20118;-73
2023/01/06 00:36:44;;;;;;;73.43;19.77;;;10.40;99.90;;;;;;5073072;28;20037;-74
2023/01/06 00:39:13;;;;;;;59.38;17.50;;;10.40;99.90;;;;;;5073665;28;20362;-75
2023/01/06 00:44:23;;;;;;;50.40;14.25;;;10.40;99.90;;;;;;5058710;28;20448;-74
2023/01/06 00:46:50;;;;;;;52.67;15.52;;;10.40;99.90;;;;;;5071948;28;20040;-75
2023/01/06 00:49:15;;;;;;;51.33;15.77;;;10.40;99.90;;;;;;5071866;28;20086;-75
2023/01/06 00:51:41;;;;;;;53.13;13.82;;;10.30;99.90;;;;;;5073024;28;20049;-75
2023/01/06 00:54:09;;;;;;;49.67;13.35;;;10.40;99.90;;;;;;5073051;28;20045;-75
2023/01/06 00:56:37;;;;;;;44.70;12.85;;;10.40;99.90;;;;;;5055049;28;20080;-74
2023/01/06 00:59:03;;;;;;;52.47;12.98;;;10.30;99.90;;;;;;5073170;28;20059;-74
2023/01/06 01:01:29;;;;;;;47.88;13.65;;;10.30;99.90;;;;;;5071926;28;20067;-74
2023/01/06 01:03:55;;;;;;;52.03;13.02;;;10.40;99.90;;;;;;5058705;28;20052;-75
2023/01/06 01:06:21;;;;;;;53.33;13.90;;;10.30;99.90;;;;;;5078038;28;20051;-74
2023/01/06 01:08:46;;;;;;;50.72;12.45;;;10.30;99.90;;;;;;5075744;28;20476;-73
2023/01/06 01:12:08;;;;;;;48.15;13.80;;;10.40;99.90;;;;;;5025974;28;20092;-76
2023/01/06 01:14:01;;;;;;;46.88;11.52;;;10.40;99.90;;;;;;5075666;28;20063;-74
2023/01/06 01:16:27;;;;;;;49.17;13.38;;;10.40;99.90;;;;;;5058960;28;20388;-75
2023/01/06 01:18:53;;;;;;;43.33;12.10;;;10.30;99.90;;;;;;5075579;28;20045;-75
2023/01/06 01:21:18;;;;;;;39.58;9.77;;;10.40;99.90;;;;;;5075735;28;20049;-75
2023/01/06 01:23:44;;;;;;;41.35;11.18;;;10.40;99.90;;;;;;5075167;28;20055;-74
2023/01/06 01:26:09;;;;;;;49.83;12.85;;;10.40;99.90;;;;;;5076397;28;20139;-73
2023/01/06 01:28:35;;;;;;;40.75;10.77;;;10.40;99.90;;;;;;5076320;28;20041;-73
2023/01/06 01:31:02;;;;;;;38.75;12.23;;;10.40;99.90;;;;;;5075087;28;20057;-74
2023/01/06 01:33:29;;;;;;;44.92;11.80;;;10.30;99.90;;;;;;5074990;28;20048;-74
2023/01/06 01:35:55;;;;;;;42.05;11.75;;;10.40;99.90;;;;;;5076240;28;20037;-75
2023/01/06 01:38:21;;;;;;;44.05;12.77;;;10.30;99.90;;;;;;5076179;28;20040;-74
2023/01/06 01:40:50;;;;;;;41.25;11.65;;;10.30;99.90;;;;;;5076610;28;20049;-75
2023/01/06 01:43:16;;;;;;;34.95;11.18;;;10.30;99.90;;;;;;5076018;28;20127;-74
2023/01/06 01:45:48;;;;;;;44.97;12.77;;;10.30;99.90;;;;;;5076076;28;20052;-74
2023/01/06 01:48:22;;;;;;;39.22;11.63;;;10.30;99.90;;;;;;5074877;28;20131;-75
2023/01/06 01:50:52;;;;;;;40.70;11.75;;;10.30;99.90;;;;;;5076148;28;20127;-74
2023/01/06 01:53:19;;;;;;;41.92;13.00;;;10.30;99.90;;;;;;5075828;28;20048;-73
2023/01/06 01:55:46;;;;;;;36.65;11.70;;;10.30;99.90;;;;;;5075678;28;20041;-75
2023/01/06 01:58:20;;;;;;;40.53;10.93;;;10.30;99.90;;;;;;5076635;28;20103;-75
2023/01/06 02:00:45;;;;;;;32.17;11.15;;;10.20;99.90;;;;;;5057912;28;20389;-74
2023/01/06 02:03:13;;;;;;;38.80;11.63;;;10.20;99.90;;;;;;5075625;28;20135;-74
2023/01/06 02:05:45;;;;;;;36.30;13.13;;;10.20;99.90;;;;;;5075652;28;20127;-74
2023/01/06 02:08:59;;;;;;;37.05;11.77;;;10.20;99.90;;;;;;5075630;28;20044;-73
2023/01/06 02:11:28;;;;;;;34.45;10.32;;;10.30;99.90;;;;;;5076377;28;20059;-74
2023/01/06 02:14:15;;;;;;;35.72;10.50;;;10.20;99.90;;;;;;5074344;28;20052;-74
2023/01/06 02:17:04;;;;;;;33.35;9.90;;;10.20;99.90;;;;;;5076019;28;20045;-73
2023/01/06 02:19:51;;;;;;;30.85;9.43;;;10.30;99.90;;;;;;5068737;28;20136;-73
2023/01/06 02:22:38;;;;;;;34.10;9.77;;;10.30;99.90;;;;;;5074378;28;20048;-73
2023/01/06 02:25:04;;;;;;;28.15;9.27;;;10.20;99.90;;;;;;5075393;28;20142;-74
2023/01/06 02:27:51;;;;;;;34.40;9.65;;;10.30;99.90;;;;;;5075197;28;20063;-74
2023/01/06 02:30:32;;;;;;;33.53;10.73;;;10.30;99.90;;;;;;5075380;28;20076;-75
2023/01/06 02:33:04;;;;;;;30.42;9.90;;;10.30;99.90;;;;;;5075610;28;20040;-74
2023/01/06 02:35:51;;;;;;;26.58;9.25;;;10.30;99.90;;;;;;5074412;28;20395;-74
2023/01/06 02:38:17;;;;;;;33.83;9.32;;;10.30;99.90;;;;;;5074438;28;20052;-74
2023/01/06 02:41:23;;;;;;;30.73;9.15;;;10.30;99.90;;;;;;5075779;28;20097;-74
2023/01/06 02:43:53;;;;;;;22.40;7.05;;;10.30;99.90;;;;;;5075616;28;20049;-72
2023/01/06 02:46:30;;;;;;;33.10;8.90;;;10.30;99.90;;;;;;5076028;28;20049;-72
2023/01/06 02:49:23;;;;;;;28.65;9.25;;;10.30;99.90;;;;;;5074180;28;20127;-74
2023/01/06 02:52:19;;;;;;;28.65;8.80;;;10.30;99.90;;;;;;5073521;28;20088;-73
2023/01/06 02:55:04;;;;;;;27.83;10.05;;;10.30;99.90;;;;;;5075209;28;20059;-74
2023/01/06 02:57:49;;;;;;;30.20;10.45;;;10.30;99.90;;;;;;5075028;28;20044;-75
2023/01/06 03:00:24;;;;;;;31.25;10.00;;;10.30;99.90;;;;;;5090389;28;20420;-74
2023/01/06 03:02:57;;;;;;;35.17;10.23;;;10.30;99.90;;;;;;5074493;28;20059;-74
2023/01/06 03:05:24;;;;;;;37.92;11.80;;;10.30;99.90;;;;;;5074590;28;20048;-75
2023/01/06 03:07:51;;;;;;;34.20;11.60;;;10.30;99.90;;;;;;5057135;28;20181;-74
2023/01/06 03:10:18;;;;;;;;;;;10.30;99.90;;;;;;5075057;28;20048;-74
2023/01/06 03:13:22;;;;;;;34.67;12.75;;;10.30;99.90;;;;;;5074306;28;19966;-74
2023/01/06 03:15:48;;;;;;;41.17;14.90;;;10.30;99.90;;;;;;5038551;28;20076;-74
2023/01/06 03:18:13;;;;;;;38.97;12.50;;;10.30;99.90;;;;;;5073942;28;20157;-72
2023/01/06 03:20:39;;;;;;;32.92;12.85;;;10.30;99.90;;;;;;5073657;28;20040;-74
2023/01/06 03:23:05;;;;;;;34.47;12.48;;;10.30;99.90;;;;;;5073164;28;20036;-74
2023/01/06 03:25:31;;;;;;;34.25;11.45;;;10.30;99.90;;;;;;5073809;28;20097;-73
2023/01/06 03:27:57;;;;;;;33.88;13.52;;;10.30;99.90;;;;;;5072990;28;20071;-74
2023/01/06 03:30:27;;;;;;;37.85;13.15;;;10.20;99.90;;;;;;5073793;28;20140;-74
2023/01/06 03:33:13;;;;;;;39.92;13.07;;;10.20;99.90;;;;;;5056969;28;20040;-74
2023/01/06 03:35:48;;;;;;;39.83;14.63;;;10.30;99.90;;;;;;5074743;28;20044;-74
2023/01/06 03:38:16;;;;;;;44.08;14.73;;;10.30;99.90;;;;;;5073151;28;20101;-74
2023/01/06 03:41:05;;;;;;;50.55;15.57;;;10.20;99.90;;;;;;5072922;28;20045;-73
2023/01/06 03:43:56;;;;;;;40.95;14.95;;;10.30;99.90;;;;;;5073746;28;20054;-73
2023/01/06 03:46:41;;;;;;;50.53;16.40;;;10.20;99.90;;;;;;5074585;28;20407;-74
2023/01/06 03:49:20;;;;;;;44.50;16.55;;;10.20;99.90;;;;;;5074098;28;20055;-73
2023/01/06 03:52:10;;;;;;;45.40;16.77;;;10.30;99.90;;;;;;5056630;28;20053;-74
2023/01/06 03:54:48;;;;;;;44.80;15.85;;;10.20;99.90;;;;;;5074637;28;20050;-72
2023/01/06 03:57:20;;;;;;;42.35;15.02;;;10.20;99.90;;;;;;5073673;28;20505;-73
2023/01/06 03:59:52;;;;;;;25.40;9.95;;;10.20;99.90;;;;;;5055805;28;20075;-73
2023/01/06 04:02:19;;;;;;;42.15;15.90;;;10.20;99.90;;;;;;5073420;28;20064;-74
2023/01/06 04:05:03;;;;;;;39.95;15.15;;;10.30;99.90;;;;;;5073300;28;20401;-73
2023/01/06 04:07:29;;;;;;;34.28;13.85;;;10.20;99.90;;;;;;5056447;28;20389;-73
2023/01/06 04:09:55;;;;;;;37.17;14.25;;;10.20;99.90;;;;;;5055721;28;20052;-74
2023/01/06 04:12:39;;;;;;;43.08;16.27;;;10.20;99.90;;;;;;5073427;28;20438;-72
2023/01/06 04:15:13;;;;;;;40.22;16.40;;;10.20;99.90;;;;;;5073009;28;20376;-73
2023/01/06 04:17:40;;;;;;;37.63;14.27;;;10.20;99.90;;;;;;5073128;28;20052;-73
2023/01/06 04:20:07;;;;;;;;;;;10.30;99.90;;;;;;5073808;28;20094;-72
2023/01/06 04:22:33;;;;;;;34.58;13.70;;;10.20;99.90;;;;;;5072820;28;19916;-74
2023/01/06 04:24:59;;;;;;;38.03;14.97;;;10.20;99.90;;;;;;5073279;28;20047;-74
2023/01/06 04:27:25;;;;;;;34.30;14.23;;;10.20;99.90;;;;;;5072193;28;20477;-72
2023/01/06 04:29:51;;;;;;;33.33;14.43;;;10.20;99.90;;;;;;5089252;28;20382;-74
2023/01/06 04:32:17;;;;;;;49.38;16.80;;;10.30;99.90;;;;;;5073272;28;20040;-74
2023/01/06 04:34:43;;;;;;;36.30;14.32;;;10.20;99.90;;;;;;5071919;28;20047;-74
2023/01/06 04:37:09;;;;;;;36.50;14.25;;;10.30;99.90;;;;;;5072238;28;20093;-73
2023/01/06 04:39:34;;;;;;;31.30;11.55;;;10.30;99.90;;;;;;5059701;28;20045;-72
2023/01/06 04:42:00;;;;;;;33.35;13.07;;;10.30;99.90;;;;;;5059554;28;20492;-73
2023/01/06 04:44:26;;;;;;;34.38;12.63;;;10.30;99.90;;;;;;5076240;28;20041;-73
2023/01/06 04:46:51;;;;;;;30.48;12.25;;;10.20;99.90;;;;;;5076127;28;20045;-73
2023/01/06 04:49:17;;;;;;;29.63;11.40;;;10.30;99.90;;;;;;5075854;28;20066;-73
2023/01/06 04:51:43;;;;;;;27.23;11.02;;;10.30;99.90;;;;;;5059092;28;20097;-73
2023/01/06 04:54:09;;;;;;;22.83;9.75;;;10.30;99.90;;;;;;5059092;28;20435;-73
2023/01/06 04:56:34;;;;;;;22.25;9.75;;;10.30;99.90;;;;;;5075567;28;20041;-72
2023/01/06 04:59:00;;;;;;;22.02;9.15;;;10.30;99.90;;;;;;5076889;28;20053;-73
2023/01/06 05:01:26;;;;;;;21.83;8.50;;;10.30;99.90;;;;;;5075431;28;20052;-72
2023/01/06 05:03:52;;;;;;;24.58;7.75;;;10.30;99.90;;;;;;5076737;28;20049;-73
2023/01/06 05:06:19;;;;;;;20.85;7.15;;;10.30;99.90;;;;;;5075999;28;20052;-75
2023/01/06 05:08:45;;;;;;;20.85;6.80;;;10.40;99.90;;;;;;5077471;28;20040;-74
2023/01/06 05:11:17;;;;;;;17.15;6.45;;;10.40;99.90;;;;;;5075496;28;20497;-73
2023/01/06 05:13:43;;;;;;;20.27;6.30;;;10.40;99.90;;;;;;5076544;28;20052;-75
2023/01/06 05:16:16;;;;;;;20.77;6.75;;;10.40;99.90;;;;;;5076887;28;20037;-74
2023/01/06 05:18:42;;;;;;;16.63;6.18;;;10.40;99.90;;;;;;5075313;28;20048;-73
2023/01/06 05:21:08;;;;;;;19.33;6.38;;;10.40;99.90;;;;;;5076858;28;20473;-73
2023/01/06 05:23:35;;;;;;;22.30;5.97;;;10.40;99.90;;;;;;5109253;28;20178;-73
2023/01/06 05:26:01;;;;;;;;;;;10.40;99.90;;;;;;5075511;28;20055;-72
2023/01/06 05:28:28;;;;;;;15.50;4.90;;;10.40;99.90;;;;;;5076387;28;19959;-72
2023/01/06 05:30:58;;;;;;;;;;;10.50;99.90;;;;;;5110452;28;20045;-72
2023/01/06 05:33:23;;;;;;;18.45;5.07;;;10.50;99.90;;;;;;5076159;28;19920;-73
2023/01/06 05:35:56;;;;;;;14.07;4.97;;;10.40;99.90;;;;;;5076037;28;20048;-75
2023/01/06 05:38:22;;;;;;;15.50;5.25;;;10.40;99.90;;;;;;5076033;28;20048;-73
2023/01/06 05:40:51;;;;;;;19.60;6.55;;;10.40;99.90;;;;;;5091911;28;20495;-71
2023/01/06 05:43:17;;;;;;;22.60;6.93;;;10.50;99.90;;;;;;5076045;28;20055;-73
2023/01/06 05:45:43;;;;;;;16.63;7.18;;;10.40;99.90;;;;;;5074924;28;20393;-71
2023/01/06 05:48:09;;;;;;;17.35;5.65;;;10.40;99.90;;;;;;5074711;28;20048;-72
2023/01/06 05:50:35;;;;;;;18.92;6.60;;;10.50;99.90;;;;;;5075881;28;20049;-72
2023/01/06 05:53:00;;;;;;;14.73;5.43;;;10.50;99.90;;;;;;5075806;28;20127;-72
2023/01/06 05:55:26;;;;;;;19.63;5.55;;;10.50;99.90;;;;;;5076031;28;20041;-72
2023/01/06 05:57:52;;;;;;;19.10;6.30;;;10.50;99.90;;;;;;5075536;28;20442;-75
2023/01/06 06:00:18;;;;;;;17.85;6.20;;;10.40;99.90;;;;;;5074193;28;20096;-73
2023/01/06 06:02:44;;;;;;;16.45;5.88;;;10.50;99.90;;;;;;5057950;28;20063;-71
2023/01/06 06:05:09;;;;;;;19.45;6.43;;;10.40;99.90;;;;;;5075251;28;20044;-73
2023/01/06 06:07:35;;;;;;;17.88;6.15;;;10.50;99.90;;;;;;5074692;28;20170;-72
2023/01/06 06:10:01;;;;;;;17.73;6.45;;;10.50;99.90;;;;;;5057821;28;20480;-72
2023/01/06 06:12:27;;;;;;;18.10;7.10;;;10.50;99.90;;;;;;5074424;28;20048;-72
2023/01/06 06:14:53;;;;;;;17.27;6.03;;;10.40;99.90;;;;;;5057772;28;20044;-73
2023/01/06 06:17:19;;;;;;;19.58;7.25;;;10.50;99.90;;;;;;5075376;28;20492;-73
2023/01/06 06:19:44;;;;;;;18.75;5.93;;;10.40;99.90;;;;;;5075440;28;20040;-73
2023/01/06 06:22:10;;;;;;;18.08;6.60;;;10.30;99.90;;;;;;5057610;28;20056;-72
2023/01/06 06:24:36;;;;;;;21.60;6.15;;;10.30;99.90;;;;;;5057708;28;20055;-73
2023/01/06 06:27:02;;;;;;;17.65;5.75;;;10.30;99.90;;;;;;5074310;28;20036;-72
2023/01/06 06:29:27;;;;;;;24.90;8.50;;;10.20;99.90;;;;;;5057760;28;20052;-73
2023/01/06 06:31:53;;;;;;;20.05;6.10;;;10.20;99.90;;;;;;5057706;28;20093;-72
2023/01/06 06:34:19;;;;;;;18.70;7.38;;;10.30;99.90;;;;;;5057468;28;20051;-73
2023/01/06 06:36:44;;;;;;;23.83;8.13;;;10.20;99.90;;;;;;5057254;28;20044;-72
2023/01/06 06:39:10;;;;;;;21.23;7.20;;;10.20;99.90;;;;;;5074127;28;20048;-72
2023/01/06 06:41:36;;;;;;;23.38;6.80;;;10.10;99.90;;;;;;5074052;28;20087;-73
2023/01/06 06:44:02;;;;;;;29.23;8.00;;;10.00;99.90;;;;;;5057203;28;20056;-72
2023/01/06 06:46:28;;;;;;;26.10;8.03;;;9.90;99.90;;;;;;5075404;28;20059;-71
2023/01/06 06:48:54;;;;;;;22.85;7.80;;;9.90;99.90;;;;;;5075300;28;20124;-72
2023/01/06 06:51:21;;;;;;;22.48;6.72;;;9.80;99.90;;;;;;5074258;28;20084;-73
2023/01/06 06:53:47;;;;;;;23.42;8.40;;;9.70;99.90;;;;;;5074799;28;20055;-73
2023/01/06 06:56:15;;;;;;;34.97;9.77;;;9.70;99.90;;;;;;5075265;28;20047;-72
2023/01/06 06:58:41;;;;;;;30.40;9.90;;;9.70;99.90;;;;;;5056942;28;20306;-73
2023/01/06 07:01:12;;;;;;;26.20;7.57;;;9.60;99.90;;;;;;5073421;28;20066;-73
2023/01/06 07:03:39;;;;;;;27.42;8.20;;;9.60;99.90;;;;;;5073543;28;20137;-73
2023/01/06 07:06:07;;;;;;;28.00;9.37;;;9.70;99.90;;;;;;5073421;28;20120;-74
2023/01/06 07:08:33;;;;;;;29.30;8.60;;;9.60;99.90;;;;;;5074473;28;20055;-73
2023/01/06 07:10:59;;;;;;;26.20;7.40;;;9.60;99.90;;;;;;5073655;28;20045;-73
2023/01/06 07:13:25;;;;;;;25.27;9.02;;;9.60;99.90;;;;;;5073371;28;20071;-74
2023/01/06 07:15:51;;;;;;;34.67;8.32;;;9.60;99.90;;;;;;5073152;28;20044;-74
2023/01/06 07:18:17;;;;;;;27.42;8.75;;;9.60;99.90;;;;;;5040006;28;20496;-73
2023/01/06 07:20:49;;;;;;;26.45;9.15;;;9.60;99.90;;;;;;5073579;28;20049;-73
2023/01/06 07:23:16;;;;;;;25.08;8.88;;;9.70;99.90;;;;;;5074422;28;20048;-72
2023/01/06 07:25:41;;;;;;;22.67;8.55;;;9.70;99.90;;;;;;5073098;28;20114;-74
2023/01/06 07:28:08;;;;;;;31.88;10.38;;;9.70;99.90;;;;;;5073664;28;20079;-71
2023/01/06 07:30:35;;;;;;;26.40;9.38;;;9.70;99.90;;;;;;5073231;28;20049;-73
2023/01/06 07:33:01;;;;;;;28.40;9.77;;;9.70;99.90;;;;;;5073992;28;20532;-73
2023/01/06 07:35:27;;;;;;;26.80;9.80;;;9.70;99.90;;;;;;5073190;28;20055;-74
2023/01/06 07:37:52;;;;;;;36.38;12.00;;;9.70;99.90;;;;;;5072647;28;20052;-73
2023/01/06 07:40:18;;;;;;;33.72;11.02;;;9.70;99.90;;;;;;5072519;28;20048;-72
2023/01/06 07:42:44;;;;;;;29.83;10.43;;;9.70;99.90;;;;;;5073720;28;20100;-72
2023/01/06 07:45:12;;;;;;;32.10;10.85;;;9.70;99.90;;;;;;5073390;28;20048;-73
2023/01/06 07:47:37;;;;;;;32.30;10.57;;;9.70;99.90;;;;;;5073729;28;20092;-72
2023/01/06 07:50:04;;;;;;;33.10;9.65;;;9.80;99.90;;;;;;5073664;28;20129;-73
2023/01/06 07:52:31;;;;;;;25.88;9.48;;;9.70;99.90;;;;;;5073671;28;20056;-74
2023/01/06 07:54:59;;;;;;;30.17;10.77;;;9.70;99.90;;;;;;5073425;28;20131;-74
2023/01/06 07:57:26;;;;;;;26.08;9.73;;;9.80;99.90;;;;;;5073367;28;20044;-73
2023/01/06 07:59:52;;;;;;;25.98;8.90;;;9.70;99.90;;;;;;5072662;28;20048;-73
2023/01/06 08:02:18;;;;;;;18.30;6.68;;;9.70;99.90;;;;;;5073487;28;20049;-73
2023/01/06 08:04:44;;;;;;;23.10;8.20;;;9.80;99.90;;;;;;5074021;28;20094;-74
2023/01/06 08:07:09;;;;;;;19.38;7.32;;;9.80;99.90;;;;;;5072024;28;20124;-73
2023/01/06 08:09:36;;;;;;;23.05;7.53;;;9.80;99.90;;;;;;5073382;28;20127;-73
2023/01/06 08:12:01;;;;;;;18.90;6.85;;;9.80;99.90;;;;;;5055891;28;20473;-73
2023/01/06 08:14:27;;;;;;;16.48;6.03;;;9.80;99.90;;;;;;5073230;28;20044;-76
2023/01/06 08:16:53;;;;;;;14.48;5.88;;;9.80;99.90;;;;;;5071892;28;20037;-75
2023/01/06 08:19:18;;;;;;;15.70;5.13;;;9.90;99.90;;;;;;5073170;28;20048;-75
2023/01/06 08:21:44;;;;;;;17.98;5.88;;;9.80;99.90;;;;;;5056379;28;20055;-73
2023/01/06 08:24:10;;;;;;;19.00;5.38;;;9.80;99.90;;;;;;5055880;28;20052;-72
2023/01/06 08:26:36;;;;;;;13.52;4.30;;;9.70;99.90;;;;;;5071769;28;20489;-73
2023/01/06 08:29:02;;;;;;;12.00;3.90;;;9.60;99.90;;;;;;5072033;28;20409;-73
2023/01/06 08:31:27;;;;;;;9.52;3.78;;;9.60;99.90;;;;;;5072461;28;20055;-73
2023/01/06 08:33:53;;;;;;;16.08;3.42;;;9.40;99.90;;;;;;5072384;28;20056;-73
2023/01/06 08:36:21;;;;;;;17.02;2.50;;;9.30;99.90;;;;;;5071972;28;20389;-74
2023/01/06 08:38:47;;;;;;;11.68;2.63;;;9.20;99.90;;;;;;5073251;28;20053;-73
2023/01/06 08:41:13;;;;;;;17.80;2.57;;;9.10;99.90;;;;;;5073170;28;20048;-72
2023/01/06 08:43:41;;;;;;;13.70;2.72;;;9.00;99.90;;;;;;5071903;28;20086;-73
2023/01/06 08:46:10;;;;;;;13.07;2.53;;;9.00;99.90;;;;;;5071832;28;20094;-73
2023/01/06 08:48:36;;;;;;;13.25;2.33;;;8.90;99.90;;;;;;5071799;28;20098;-73
2023/01/06 08:51:09;;;;;;;15.77;2.65;;;8.90;99.90;;;;;;5071924;28;20040;-73
2023/01/06 08:53:35;;;;;;;16.55;3.58;;;8.90;99.90;;;;;;5072923;28;20074;-73
2023/01/06 08:56:01;;;;;;;15.45;2.80;;;8.80;99.90;;;;;;5072129;28;20169;-74
2023/01/06 08:58:27;;;;;;;10.70;2.13;;;8.80;99.90;;;;;;5073609;28;20105;-73
2023/01/06 09:00:52;;;;;;;15.75;2.42;;;8.80;99.90;;;;;;5073190;28;20456;-74
2023/01/06 09:03:18;;;;;;;18.75;2.42;;;8.70;99.90;;;;;;5072920;28;20495;-72
2023/01/06 09:05:55;;;;;;;19.75;2.45;;;8.70;99.90;;;;;;5055474;28;20047;-73
2023/01/06 09:08:21;;;;;;;15.90;2.25;;;8.70;99.90;;;;;;5072904;28;20052;-73
2023/01/06 09:10:47;;;;;;;17.08;1.80;;;8.60;99.90;;;;;;5073025;28;20056;-74
2023/01/06 09:13:14;;;;;;;20.98;2.05;;;8.60;99.90;;;;;;5071875;28;20200;-73
2023/01/06 09:15:41;;;;;;;22.85;2.08;;;8.60;99.90;;;;;;5072549;28;20401;-73
2023/01/06 09:18:08;;;;;;;19.27;2.00;;;8.60;99.90;;;;;;5071655;28;20040;-73
2023/01/06 09:20:35;;;;;;;17.20;1.60;;;8.60;99.90;;;;;;5072203;28;20143;-74
2023/01/06 09:23:00;;;;;;;18.88;1.67;;;8.60;99.90;;;;;;5071784;28;20055;-73
2023/01/06 09:25:26;;;;;;;22.30;2.30;;;8.60;99.90;;;;;;5076353;28;20044;-72
2023/01/06 09:27:52;;;;;;;20.15;1.90;;;8.60;99.90;;;;;;5076006;28;20473;-73
2023/01/06 09:30:18;;;;;;;17.95;1.90;;;8.60;99.90;;;;;;5076247;28;20045;-73
2023/01/06 09:32:44;;;;;;;28.00;1.70;;;8.70;99.90;;;;;;5074909;28;20043;-74
2023/01/06 09:35:10;;;;;;;16.63;1.40;;;8.60;99.90;;;;;;5077042;28;20041;-74
2023/01/06 09:37:36;;;;;;;20.33;1.80;;;8.80;99.90;;;;;;5074775;28;20484;-73
2023/01/06 09:40:02;;;;;;;17.13;1.25;;;8.70;99.90;;;;;;5058813;28;20044;-72
2023/01/06 09:42:55;;;;;;;18.63;1.20;;;8.70;99.90;;;;;;5075119;28;20439;-73
2023/01/06 09:45:38;;;;;;;18.10;1.38;;;8.70;99.90;;;;;;5075564;28;20059;-73
2023/01/06 09:48:12;;;;;;;13.93;1.73;;;8.70;99.90;;;;;;5076605;28;20048;-73
2023/01/06 09:50:44;;;;;;;21.30;1.00;;;8.60;99.90;;;;;;5076742;28;20049;-73
2023/01/06 09:53:19;;;;;;;15.63;1.23;;;8.60;99.90;;;;;;5042322;28;20472;-72
2023/01/06 09:55:56;;;;;;;19.77;0.98;;;8.70;99.90;;;;;;5059262;28;20041;-72
2023/01/06 09:58:39;;;;;;;20.08;2.08;;;8.70;99.90;;;;;;5076571;28;20052;-73
2023/01/06 10:01:11;;;;;;;21.92;1.10;;;8.70;99.90;;;;;;5076035;28;20061;-73
2023/01/06 10:03:37;;;;;;;17.70;0.82;;;8.70;99.90;;;;;;5074624;28;20067;-73
2023/01/06 10:06:06;;;;;;;17.38;1.63;;;8.70;99.90;;;;;;5075523;28;20124;-73
2023/01/06 10:09:20;;;;;;;10.02;0.60;;;8.70;99.90;;;;;;5075660;28;20382;-74
2023/01/06 10:11:49;;;;;;;10.20;0.70;;;8.80;99.90;;;;;;5070505;28;20062;-73
2023/01/06 10:14:23;;;;;;;18.50;0.75;;;8.90;99.90;;;;;;5075838;28;20044;-74
2023/01/06 10:17:15;;;;;;;17.42;0.90;;;8.90;99.90;;;;;;5074265;28;20516;-72
2023/01/06 10:20:21;;;;;;;12.25;0.75;;;8.90;99.90;;;;;;5066603;28;20512;-74
2023/01/06 10:23:17;;;;;;;22.45;1.08;;;9.00;99.90;;;;;;5055169;28;20048;-73
2023/01/06 10:25:52;;;;;;;21.08;1.05;;;9.00;99.90;;;;;;5076260;28;20044;-72
2023/01/06 10:28:34;;;;;;;20.27;1.30;;;9.00;99.90;;;;;;5075362;28;20048;-72
2023/01/06 10:31:08;;;;;;;19.33;1.20;;;9.00;99.90;;;;;;5075398;28;20052;-74
2023/01/06 10:33:42;;;;;;;23.23;1.35;;;9.00;99.90;;;;;;5075270;28;20100;-74
2023/01/06 10:36:17;;;;;;;19.80;1.15;;;9.10;99.90;;;;;;5073299;28;20049;-73
2023/01/06 10:38:45;;;;;;;14.98;0.82;;;9.10;99.90;;;;;;5075092;28;20539;-73
2023/01/06 10:41:43;;;;;;;12.63;1.45;;;9.10;99.90;;;;;;5073825;28;20049;-74
2023/01/06 10:44:10;;;;;;;17.90;1.10;;;9.20;99.90;;;;;;5075015;28;20052;-73
2023/01/06 10:46:38;;;;;;;16.50;0.85;;;9.20;99.90;;;;;;5074439;28;20497;-72
2023/01/06 10:49:11;;;;;;;12.43;1.17;;;9.20;99.90;;;;;;5075458;28;20065;-73
2023/01/06 10:51:48;;;;;;;18.38;1.08;;;9.30;99.90;;;;;;5057651;28;20048;-72
2023/01/06 10:54:20;;;;;;;21.00;1.42;;;9.30;99.90;;;;;;5075451;28;20388;-74
2023/01/06 10:56:52;;;;;;;28.33;1.83;;;9.40;99.90;;;;;;5073524;28;20041;-74
2023/01/06 10:59:18;;;;;;;18.33;1.42;;;9.40;99.90;;;;;;5074295;28;20049;-73
2023/01/06 11:01:50;;;;;;;;;;;9.40;99.90;;;;;;5074670;28;20060;-74
2023/01/06 11:04:16;;;;;;;13.70;1.00;;;9.40;99.90;;;;;;5073615;28;19920;-71
2023/01/06 11:06:47;;;;;;;19.55;1.20;;;9.50;99.90;;;;;;5073599;28;20055;-73
2023/01/06 11:09:31;;;;;;;23.00;0.95;;;9.50;99.90;;;;;;5074422;28;20102;-73
2023/01/06 11:12:01;;;;;;;25.02;1.90;;;9.50;99.90;;;;;;5074740;28;20540;-73
2023/01/06 11:14:32;;;;;;;18.15;1.35;;;9.50;99.90;;;;;;5074285;28;20048;-73
2023/01/06 11:17:03;;;;;;;11.02;1.10;;;9.50;99.90;;;;;;5073451;28;20045;-74
2023/01/06 11:19:44;;;;;;;15.90;0.88;;;9.50;99.90;;;;;;5074258;28;20427;-74
2023/01/06 11:22:37;;;;;;;20.05;0.88;;;9.50;99.90;;;;;;5074167;28;20052;-74
2023/01/06 11:25:21;;;;;;;16.13;1.35;;;9.50;99.90;;;;;;5074064;28;20388;-75
2023/01/06 11:28:07;;;;;;;17.98;1.17;;;9.50;99.90;;;;;;5073142;28;20044;-73
2023/01/06 11:30:47;;;;;;;10.45;0.70;;;9.60;99.90;;;;;;5074360;28;20131;-72
2023/01/06 11:33:19;;;;;;;9.68;0.50;;;9.60;99.90;;;;;;5073295;28;20125;-74
2023/01/06 11:35:45;;;;;;;21.05;0.65;;;9.50;99.90;;;;;;5074007;28;20041;-71
2023/01/06 11:38:16;;;;;;;10.20;0.70;;;9.60;99.90;;;;;;5073960;28;20082;-72
2023/01/06 11:40:44;;;;;;;12.73;0.60;;;9.60;99.90;;;;;;5056131;28;20055;-74
2023/01/06 11:43:15;;;;;;;21.95;1.00;;;9.60;99.90;;;;;;5056136;28;20064;-74
2023/01/06 11:45:48;;;;;;;11.70;0.75;;;9.60;99.90;;;;;;5072677;28;20056;-72
2023/01/06 11:48:42;;;;;;;16.13;0.80;;;9.60;99.90;;;;;;5073454;28;20076;-73
2023/01/06 11:51:08;;;;;;;17.92;0.77;;;9.60;99.90;;;;;;5070193;28;20158;-72
2023/01/06 11:53:36;;;;;;;14.43;0.90;;;9.70;99.90;;;;;;5072308;28;20384;-73
2023/01/06 11:56:01;;;;;;;14.23;1.35;;;9.70;99.90;;;;;;5073116;28;20305;-73
2023/01/06 11:58:59;;;;;;;10.05;0.65;;;9.70;99.90;;;;;;5073428;28;20127;-74
2023/01/06 12:01:46;;;;;;;13.70;1.00;;;9.90;99.90;;;;;;5072859;28;20064;-71
2023/01/06 12:04:22;;;;;;;15.32;1.02;;;9.80;99.90;;;;;;5073545;28;20052;-72
2023/01/06 12:06:50;;;;;;;15.25;0.60;;;9.80;99.90;;;;;;5072696;28;20417;-73
2023/01/06 12:09:33;;;;;;;9.98;0.40;;;9.70;99.90;;;;;;5073408;28;20121;-73
2023/01/06 12:12:06;;;;;;;10.27;1.00;;;9.70;99.90;;;;;;5073230;28;20057;-73
2023/01/06 12:14:42;;;;;;;8.98;1.35;;;9.70;99.90;;;;;;5057031;28;20098;-73
2023/01/06 12:17:26;;;;;;;14.75;0.88;;;9.70;99.90;;;;;;5072486;28;20044;-72
2023/01/06 12:20:01;;;;;;;14.15;0.70;;;9.70;99.90;;;;;;5072228;28;20051;-74
2023/01/06 12:22:33;;;;;;;18.23;0.75;;;9.70;99.90;;;;;;5073517;28;20044;-72
2023/01/06 12:25:00;;;;;;;16.52;1.52;;;9.60;99.90;;;;;;5073248;28;20113;-74
2023/01/06 12:27:50;;;;;;;16.95;0.80;;;9.60;99.90;;;;;;5055319;28;20535;-71
2023/01/06 12:30:33;;;;;;;10.68;0.68;;;9.70;99.90;;;;;;5072894;28;20550;-73
2023/01/06 12:33:10;;;;;;;14.35;1.10;;;9.70;99.90;;;;;;5073349;28;20158;-74
2023/01/06 12:35:39;;;;;;;13.57;1.70;;;9.70;99.90;;;;;;5073724;28;20048;-74
2023/01/06 12:38:35;;;;;;;8.35;0.55;;;9.80;99.90;;;;;;5073499;28;20170;-73
2023/01/06 12:41:15;;;;;;;18.25;1.00;;;9.80;99.90;;;;;;5073050;28;20162;-73
2023/01/06 12:43:47;;;;;;;18.83;0.63;;;9.80;99.90;;;;;;5072434;28;20053;-73
2023/01/06 12:46:37;;;;;;;7.68;0.82;;;9.90;99.90;;;;;;5055902;28;20369;-74
2023/01/06 12:49:15;;;;;;;16.75;1.25;;;9.90;99.90;;;;;;5073502;28;20095;-73
2023/01/06 12:51:51;;;;;;;18.65;0.90;;;10.00;99.90;;;;;;5073255;28;20044;-72
2023/01/06 12:54:26;;;;;;;15.27;0.70;;;10.00;99.90;;;;;;5073608;28;20102;-72
2023/01/06 12:57:15;;;;;;;21.60;1.10;;;10.00;99.90;;;;;;5071711;28;20076;-74
2023/01/06 12:59:52;;;;;;;15.45;0.93;;;10.00;99.90;;;;;;5073067;28;20147;-73
2023/01/06 13:02:51;;;;;;;19.33;1.13;;;9.90;99.90;;;;;;5077566;28;20057;-73